Peace River Airport
CYPE : rendu visible

Aérodrome :











RETROUVEZ-NOUS SUR...

 
LOGIN :

S'inscrire | Disclaimer

   EN    FR    IT 

 









Légende :    VFR   VFR Marginal   IFR   IFR Intensif   IFR Très Intensif
Visi : 
Plafond : 
>= 8 km
>= 3000ft
5 à 8 km
1000 à 3000 ft
1500m à 5 km
500 à 1000 ft
800 à 1500m
200 à 500 ft
< 800m
< 200 ft
Symboles :   Orages  Brouillard  Fortes neiges  Fortes précipitations  Vent > 20 kt






- Altitude de l'aérodrome : 1873 ft
- Code IATA : YPE


CYPE - Peace River

DERNIER METAR :
  • 121015Z 09006KT 2SM -SN OVC020 M08/M10 A2986 RMK SN4SC4 SLP156

METARs EXPIRÉS :
  • 121000Z 05005KT 3SM -SN OVC025 M05/M07 A2985 RMK SN2SC6 SLP153
  • 120923Z 01003KT 15SM -SN OVC050 M07/M09 A2985 RMK SC8 SLP153
  • 120900Z 33002KT 15SM OVC070 M07/M10 A2985 RMK AC8 SLP153
  • 120800Z 00000KT 15SM SCT080 SCT120 OVC250 M09/M11 A2986 RMK AC3AC1CI4 SLP158

TAF TAF CYPE
Valide du 12 à 07h jusqu'au 12 à 19h UTC


120638Z 1207/1219 VRB03KT 6SM -SN OVC040
TEMPO 1207/1213 2SM -SN VV015
FM121300 34006KT P6SM SCT015 BKN040
TEMPO 1213/1215 5SM -SN OVC015
FM121500 34007KT P6SM FEW020 BKN040 RMK NXT FCST BY 121300Z



MET'MAP, la Météo Aéronautique d'un coup d'oeil ! - Copyright ORBIFLY Décembre 2007 - Disclaimer

ORBIFLY MET'MAP TEAM :

Programmation & Développement : Alexandra Zaïnal
Conception & Développement : Baudouin d'Aumeries
Co-Programmation & Développement : Marc-Olivier Méhu
Soutien technique & logistique : Manuel Goepfert

Contact : metmap@orbifly.com




SOURCES & CREDITS :

   NOAA       Earth
Advisory